sensor_id;sensor_type;location;lat;lon;timestamp;P1;durP1;ratioP1;P2;durP2;ratioP2
40967;SDS011;57377;45.130;6.038;2022-12-24T00:00:38;3.03;;;0.70;;
40967;SDS011;57377;45.130;6.038;2022-12-24T00:03:04;4.57;;;1.02;;
40967;SDS011;57377;45.130;6.038;2022-12-24T00:05:30;2.42;;;0.90;;
40967;SDS011;57377;45.130;6.038;2022-12-24T00:07:55;3.00;;;1.40;;
40967;SDS011;57377;45.130;6.038;2022-12-24T00:10:21;3.67;;;1.75;;
40967;SDS011;57377;45.130;6.038;2022-12-24T00:12:47;4.45;;;1.88;;
40967;SDS011;57377;45.130;6.038;2022-12-24T00:15:12;10.98;;;3.97;;
40967;SDS011;57377;45.130;6.038;2022-12-24T00:17:38;5.95;;;3.05;;
40967;SDS011;57377;45.130;6.038;2022-12-24T00:20:03;7.35;;;3.90;;
40967;SDS011;57377;45.130;6.038;2022-12-24T00:22:29;3.60;;;1.63;;
40967;SDS011;57377;45.130;6.038;2022-12-24T00:24:55;5.30;;;2.42;;
40967;SDS011;57377;45.130;6.038;2022-12-24T00:27:20;5.60;;;2.25;;
40967;SDS011;57377;45.130;6.038;2022-12-24T00:29:46;12.63;;;6.35;;
40967;SDS011;57377;45.130;6.038;2022-12-24T00:32:11;11.60;;;5.55;;
40967;SDS011;57377;45.130;6.038;2022-12-24T00:34:36;7.43;;;4.25;;
40967;SDS011;57377;45.130;6.038;2022-12-24T00:37:02;5.78;;;3.25;;
40967;SDS011;57377;45.130;6.038;2022-12-24T00:39:30;4.75;;;2.75;;
40967;SDS011;57377;45.130;6.038;2022-12-24T00:41:56;6.90;;;3.03;;
40967;SDS011;57377;45.130;6.038;2022-12-24T00:44:21;8.40;;;3.20;;
40967;SDS011;57377;45.130;6.038;2022-12-24T00:46:47;4.57;;;2.20;;
40967;SDS011;57377;45.130;6.038;2022-12-24T00:49:12;3.83;;;1.60;;
40967;SDS011;57377;45.130;6.038;2022-12-24T00:51:38;5.25;;;2.28;;
40967;SDS011;57377;45.130;6.038;2022-12-24T00:54:04;5.60;;;1.58;;
40967;SDS011;57377;45.130;6.038;2022-12-24T00:56:30;7.20;;;2.03;;
40967;SDS011;57377;45.130;6.038;2022-12-24T00:58:56;5.13;;;2.38;;
40967;SDS011;57377;45.130;6.038;2022-12-24T01:01:22;6.35;;;2.20;;
40967;SDS011;57377;45.130;6.038;2022-12-24T01:03:48;3.13;;;1.88;;
40967;SDS011;57377;45.130;6.038;2022-12-24T01:06:19;4.18;;;2.15;;
40967;SDS011;57377;45.130;6.038;2022-12-24T01:08:45;3.65;;;1.70;;
40967;SDS011;57377;45.130;6.038;2022-12-24T01:11:14;2.38;;;1.60;;
40967;SDS011;57377;45.130;6.038;2022-12-24T01:13:40;5.45;;;1.67;;
40967;SDS011;57377;45.130;6.038;2022-12-24T01:16:12;4.40;;;1.75;;
40967;SDS011;57377;45.130;6.038;2022-12-24T01:18:40;2.97;;;1.25;;
40967;SDS011;57377;45.130;6.038;2022-12-24T01:21:05;3.20;;;1.42;;
40967;SDS011;57377;45.130;6.038;2022-12-24T01:23:31;4.43;;;1.58;;
40967;SDS011;57377;45.130;6.038;2022-12-24T01:26:00;3.47;;;2.20;;
40967;SDS011;57377;45.130;6.038;2022-12-24T01:28:27;6.82;;;2.08;;
40967;SDS011;57377;45.130;6.038;2022-12-24T01:30:52;39.17;;;3.15;;
40967;SDS011;57377;45.130;6.038;2022-12-24T01:33:18;64.07;;;5.03;;
40967;SDS011;57377;45.130;6.038;2022-12-24T01:39:17;26.98;;;4.57;;
40967;SDS011;57377;45.130;6.038;2022-12-24T01:41:43;8.07;;;4.10;;
40967;SDS011;57377;45.130;6.038;2022-12-24T01:44:28;4.78;;;2.47;;
40967;SDS011;57377;45.130;6.038;2022-12-24T01:47:08;6.47;;;1.98;;
40967;SDS011;57377;45.130;6.038;2022-12-24T01:49:39;441.58;;;10.77;;
40967;SDS011;57377;45.130;6.038;2022-12-24T01:52:13;375.85;;;8.90;;
40967;SDS011;57377;45.130;6.038;2022-12-24T01:54:43;275.13;;;7.55;;
40967;SDS011;57377;45.130;6.038;2022-12-24T01:57:17;90.60;;;5.00;;
40967;SDS011;57377;45.130;6.038;2022-12-24T01:59:48;65.90;;;4.60;;
40967;SDS011;57377;45.130;6.038;2022-12-24T02:02:17;8.35;;;3.60;;
40967;SDS011;57377;45.130;6.038;2022-12-24T02:04:49;7.30;;;3.17;;
40967;SDS011;57377;45.130;6.038;2022-12-24T02:07:22;844.05;;;21.15;;
40967;SDS011;57377;45.130;6.038;2022-12-24T02:09:48;661.50;;;18.08;;
40967;SDS011;57377;45.130;6.038;2022-12-24T02:12:17;252.60;;;8.43;;
40967;SDS011;57377;45.130;6.038;2022-12-24T02:14:43;414.25;;;12.43;;
40967;SDS011;57377;45.130;6.038;2022-12-24T02:35:18;23.65;;;10.18;;
40967;SDS011;57377;45.130;6.038;2022-12-24T02:42:54;10.60;;;5.57;;
40967;SDS011;57377;45.130;6.038;2022-12-24T02:45:27;10.00;;;5.20;;
40967;SDS011;57377;45.130;6.038;2022-12-24T02:47:54;8.63;;;4.25;;
40967;SDS011;57377;45.130;6.038;2022-12-24T02:50:20;7.57;;;3.13;;
40967;SDS011;57377;45.130;6.038;2022-12-24T02:52:47;4.93;;;2.60;;
40967;SDS011;57377;45.130;6.038;2022-12-24T02:55:21;4.20;;;2.70;;
40967;SDS011;57377;45.130;6.038;2022-12-24T02:58:00;3.00;;;1.58;;
40967;SDS011;57377;45.130;6.038;2022-12-24T03:01:16;9.23;;;2.05;;
40967;SDS011;57377;45.130;6.038;2022-12-24T03:03:59;11.07;;;2.25;;
40967;SDS011;57377;45.130;6.038;2022-12-24T03:09:17;6.30;;;2.03;;
40967;SDS011;57377;45.130;6.038;2022-12-24T03:12:15;4.63;;;1.73;;
40967;SDS011;57377;45.130;6.038;2022-12-24T03:14:44;4.70;;;1.90;;
40967;SDS011;57377;45.130;6.038;2022-12-24T03:17:12;4.40;;;1.83;;
40967;SDS011;57377;45.130;6.038;2022-12-24T03:19:38;3.67;;;1.90;;
40967;SDS011;57377;45.130;6.038;2022-12-24T03:22:06;3.25;;;1.90;;
40967;SDS011;57377;45.130;6.038;2022-12-24T03:24:33;4.28;;;2.08;;
40967;SDS011;57377;45.130;6.038;2022-12-24T03:27:17;7.80;;;2.15;;
40967;SDS011;57377;45.130;6.038;2022-12-24T03:29:45;17.77;;;7.00;;
40967;SDS011;57377;45.130;6.038;2022-12-24T03:32:11;10.25;;;4.80;;
40967;SDS011;57377;45.130;6.038;2022-12-24T03:34:36;12.52;;;5.25;;
40967;SDS011;57377;45.130;6.038;2022-12-24T03:37:02;7.50;;;3.10;;
40967;SDS011;57377;45.130;6.038;2022-12-24T03:39:28;5.20;;;2.45;;
40967;SDS011;57377;45.130;6.038;2022-12-24T03:41:53;4.18;;;1.45;;
40967;SDS011;57377;45.130;6.038;2022-12-24T03:44:19;3.45;;;1.30;;
40967;SDS011;57377;45.130;6.038;2022-12-24T03:46:44;6.45;;;1.52;;
40967;SDS011;57377;45.130;6.038;2022-12-24T03:49:10;2.97;;;1.10;;
40967;SDS011;57377;45.130;6.038;2022-12-24T03:51:35;5.80;;;1.10;;
40967;SDS011;57377;45.130;6.038;2022-12-24T03:54:00;3.65;;;1.33;;
40967;SDS011;57377;45.130;6.038;2022-12-24T03:56:28;0.65;;;0.50;;
40967;SDS011;57377;45.130;6.038;2022-12-24T03:59:04;1.10;;;0.60;;
40967;SDS011;57377;45.130;6.038;2022-12-24T04:01:35;2.30;;;0.85;;
40967;SDS011;57377;45.130;6.038;2022-12-24T04:04:01;1.27;;;0.90;;
40967;SDS011;57377;45.130;6.038;2022-12-24T04:06:26;1.52;;;1.15;;
40967;SDS011;57377;45.130;6.038;2022-12-24T04:08:51;1.77;;;0.80;;
40967;SDS011;57377;45.130;6.038;2022-12-24T04:11:17;4.50;;;0.85;;
40967;SDS011;57377;45.130;6.038;2022-12-24T04:13:43;1.55;;;0.80;;
40967;SDS011;57377;45.130;6.038;2022-12-24T04:16:10;3.35;;;0.80;;
40967;SDS011;57377;45.130;6.038;2022-12-24T04:18:37;2.72;;;1.10;;
40967;SDS011;57377;45.130;6.038;2022-12-24T04:21:04;7.20;;;1.25;;
40967;SDS011;57377;45.130;6.038;2022-12-24T04:23:30;1.88;;;1.05;;
40967;SDS011;57377;45.130;6.038;2022-12-24T04:26:00;1.95;;;1.17;;
40967;SDS011;57377;45.130;6.038;2022-12-24T04:28:27;2.28;;;1.30;;
40967;SDS011;57377;45.130;6.038;2022-12-24T04:31:00;2.42;;;1.45;;
40967;SDS011;57377;45.130;6.038;2022-12-24T04:33:27;8.25;;;3.25;;
40967;SDS011;57377;45.130;6.038;2022-12-24T04:35:53;10.02;;;2.63;;
40967;SDS011;57377;45.130;6.038;2022-12-24T04:38:21;3.45;;;1.98;;
40967;SDS011;57377;45.130;6.038;2022-12-24T04:40:47;718.75;;;15.57;;
40967;SDS011;57377;45.130;6.038;2022-12-24T04:43:12;266.38;;;7.13;;
40967;SDS011;57377;45.130;6.038;2022-12-24T04:45:38;424.08;;;10.13;;
40967;SDS011;57377;45.130;6.038;2022-12-24T04:48:03;425.13;;;9.63;;
40967;SDS011;57377;45.130;6.038;2022-12-24T04:50:32;216.43;;;5.80;;
40967;SDS011;57377;45.130;6.038;2022-12-24T04:52:57;85.38;;;4.00;;
40967;SDS011;57377;45.130;6.038;2022-12-24T04:55:23;53.33;;;2.90;;
40967;SDS011;57377;45.130;6.038;2022-12-24T04:57:49;48.13;;;3.25;;
40967;SDS011;57377;45.130;6.038;2022-12-24T05:00:14;87.25;;;3.80;;
40967;SDS011;57377;45.130;6.038;2022-12-24T05:02:40;68.55;;;3.42;;
40967;SDS011;57377;45.130;6.038;2022-12-24T05:05:06;9.80;;;4.30;;
40967;SDS011;57377;45.130;6.038;2022-12-24T05:07:32;5.63;;;3.33;;
40967;SDS011;57377;45.130;6.038;2022-12-24T05:09:58;14.95;;;7.85;;
40967;SDS011;57377;45.130;6.038;2022-12-24T05:12:24;24.75;;;11.25;;
40967;SDS011;57377;45.130;6.038;2022-12-24T05:14:49;47.30;;;20.65;;
40967;SDS011;57377;45.130;6.038;2022-12-24T05:17:15;438.95;;;11.35;;
40967;SDS011;57377;45.130;6.038;2022-12-24T05:19:40;108.28;;;5.85;;
40967;SDS011;57377;45.130;6.038;2022-12-24T05:22:06;44.17;;;6.95;;
40967;SDS011;57377;45.130;6.038;2022-12-24T05:24:49;71.60;;;5.22;;
40967;SDS011;57377;45.130;6.038;2022-12-24T05:27:33;15.35;;;4.20;;
40967;SDS011;57377;45.130;6.038;2022-12-24T05:29:59;11.70;;;6.45;;
40967;SDS011;57377;45.130;6.038;2022-12-24T05:32:25;5.28;;;3.25;;
40967;SDS011;57377;45.130;6.038;2022-12-24T05:34:50;5.03;;;3.22;;
40967;SDS011;57377;45.130;6.038;2022-12-24T05:37:16;5.93;;;3.40;;
40967;SDS011;57377;45.130;6.038;2022-12-24T05:39:41;378.60;;;9.15;;
40967;SDS011;57377;45.130;6.038;2022-12-24T05:42:07;312.42;;;8.13;;
40967;SDS011;57377;45.130;6.038;2022-12-24T05:44:32;85.47;;;4.43;;
40967;SDS011;57377;45.130;6.038;2022-12-24T05:47:08;4.57;;;3.03;;
40967;SDS011;57377;45.130;6.038;2022-12-24T05:49:52;3.78;;;1.85;;
40967;SDS011;57377;45.130;6.038;2022-12-24T05:52:17;4.30;;;1.58;;
40967;SDS011;57377;45.130;6.038;2022-12-24T05:54:43;4.95;;;2.10;;
40967;SDS011;57377;45.130;6.038;2022-12-24T05:57:08;19.05;;;5.55;;
40967;SDS011;57377;45.130;6.038;2022-12-24T05:59:34;6.78;;;2.55;;
40967;SDS011;57377;45.130;6.038;2022-12-24T06:01:59;19.75;;;5.65;;
40967;SDS011;57377;45.130;6.038;2022-12-24T06:04:25;18.38;;;5.03;;
40967;SDS011;57377;45.130;6.038;2022-12-24T06:06:50;15.60;;;7.15;;
40967;SDS011;57377;45.130;6.038;2022-12-24T06:09:15;55.13;;;19.13;;
40967;SDS011;57377;45.130;6.038;2022-12-24T06:11:41;30.45;;;11.45;;
40967;SDS011;57377;45.130;6.038;2022-12-24T06:14:06;8.32;;;3.08;;
40967;SDS011;57377;45.130;6.038;2022-12-24T06:16:32;2.83;;;1.00;;
40967;SDS011;57377;45.130;6.038;2022-12-24T06:18:57;6.43;;;3.00;;
40967;SDS011;57377;45.130;6.038;2022-12-24T06:21:23;5.45;;;2.60;;
40967;SDS011;57377;45.130;6.038;2022-12-24T06:23:49;5.10;;;2.92;;
40967;SDS011;57377;45.130;6.038;2022-12-24T06:26:15;9.82;;;4.70;;
40967;SDS011;57377;45.130;6.038;2022-12-24T06:28:44;8.07;;;3.03;;
40967;SDS011;57377;45.130;6.038;2022-12-24T06:31:14;7.40;;;2.65;;
40967;SDS011;57377;45.130;6.038;2022-12-24T06:33:42;7.38;;;3.15;;
40967;SDS011;57377;45.130;6.038;2022-12-24T06:36:08;10.73;;;3.00;;
40967;SDS011;57377;45.130;6.038;2022-12-24T06:38:38;4.43;;;2.47;;
40967;SDS011;57377;45.130;6.038;2022-12-24T06:41:06;7.32;;;3.03;;
40967;SDS011;57377;45.130;6.038;2022-12-24T06:43:42;9.57;;;4.82;;
40967;SDS011;57377;45.130;6.038;2022-12-24T06:46:12;13.93;;;6.28;;
40967;SDS011;57377;45.130;6.038;2022-12-24T06:48:38;8.75;;;5.47;;
40967;SDS011;57377;45.130;6.038;2022-12-24T06:51:04;6.55;;;4.30;;
40967;SDS011;57377;45.130;6.038;2022-12-24T06:53:30;14.15;;;4.55;;
40967;SDS011;57377;45.130;6.038;2022-12-24T06:56:03;5.43;;;2.63;;
40967;SDS011;57377;45.130;6.038;2022-12-24T06:58:30;6.47;;;1.63;;
40967;SDS011;57377;45.130;6.038;2022-12-24T07:00:56;2.95;;;1.75;;
40967;SDS011;57377;45.130;6.038;2022-12-24T07:03:22;2.90;;;1.55;;
40967;SDS011;57377;45.130;6.038;2022-12-24T07:05:59;5.47;;;3.17;;
40967;SDS011;57377;45.130;6.038;2022-12-24T07:08:36;11.10;;;5.55;;
40967;SDS011;57377;45.130;6.038;2022-12-24T07:11:02;8.45;;;4.63;;
40967;SDS011;57377;45.130;6.038;2022-12-24T07:13:27;5.03;;;2.45;;
40967;SDS011;57377;45.130;6.038;2022-12-24T07:16:19;8.40;;;2.28;;
40967;SDS011;57377;45.130;6.038;2022-12-24T07:18:48;9.55;;;4.43;;
40967;SDS011;57377;45.130;6.038;2022-12-24T07:21:31;418.67;;;10.38;;
40967;SDS011;57377;45.130;6.038;2022-12-24T07:24:35;24.25;;;3.95;;
40967;SDS011;57377;45.130;6.038;2022-12-24T07:27:01;15.00;;;6.97;;
40967;SDS011;57377;45.130;6.038;2022-12-24T07:29:36;17.00;;;6.53;;
40967;SDS011;57377;45.130;6.038;2022-12-24T07:32:07;12.45;;;4.75;;
40967;SDS011;57377;45.130;6.038;2022-12-24T07:34:33;6.90;;;3.70;;
40967;SDS011;57377;45.130;6.038;2022-12-24T07:37:06;8.15;;;4.20;;
40967;SDS011;57377;45.130;6.038;2022-12-24T07:39:37;8.52;;;4.55;;
40967;SDS011;57377;45.130;6.038;2022-12-24T07:42:02;471.15;;;18.92;;
40967;SDS011;57377;45.130;6.038;2022-12-24T07:44:42;614.38;;;18.98;;
40967;SDS011;57377;45.130;6.038;2022-12-24T07:47:16;495.73;;;15.80;;
40967;SDS011;57377;45.130;6.038;2022-12-24T07:49:41;594.10;;;17.60;;
40967;SDS011;57377;45.130;6.038;2022-12-24T07:52:10;129.40;;;10.50;;
40967;SDS011;57377;45.130;6.038;2022-12-24T07:54:35;94.25;;;10.23;;
40967;SDS011;57377;45.130;6.038;2022-12-24T07:57:01;32.55;;;8.98;;
40967;SDS011;57377;45.130;6.038;2022-12-24T07:59:26;20.90;;;9.98;;
40967;SDS011;57377;45.130;6.038;2022-12-24T08:01:52;341.23;;;20.42;;
40967;SDS011;57377;45.130;6.038;2022-12-24T08:04:20;610.05;;;22.60;;
40967;SDS011;57377;45.130;6.038;2022-12-24T08:06:45;167.98;;;6.80;;
40967;SDS011;57377;45.130;6.038;2022-12-24T08:09:11;28.33;;;6.05;;
40967;SDS011;57377;45.130;6.038;2022-12-24T08:11:38;6.60;;;3.72;;
40967;SDS011;57377;45.130;6.038;2022-12-24T08:14:06;11.45;;;7.03;;
40967;SDS011;57377;45.130;6.038;2022-12-24T08:16:31;11.65;;;6.60;;
40967;SDS011;57377;45.130;6.038;2022-12-24T08:18:57;12.30;;;6.80;;
40967;SDS011;57377;45.130;6.038;2022-12-24T08:21:22;17.17;;;9.48;;
40967;SDS011;57377;45.130;6.038;2022-12-24T08:23:48;14.63;;;7.90;;
40967;SDS011;57377;45.130;6.038;2022-12-24T08:26:13;8.40;;;4.78;;
40967;SDS011;57377;45.130;6.038;2022-12-24T08:28:39;8.77;;;4.35;;
40967;SDS011;57377;45.130;6.038;2022-12-24T08:31:05;8.70;;;3.85;;
40967;SDS011;57377;45.130;6.038;2022-12-24T08:33:31;6.97;;;3.77;;
40967;SDS011;57377;45.130;6.038;2022-12-24T08:35:56;10.77;;;4.30;;
40967;SDS011;57377;45.130;6.038;2022-12-24T08:38:24;11.93;;;5.55;;
40967;SDS011;57377;45.130;6.038;2022-12-24T08:40:51;11.02;;;5.90;;
40967;SDS011;57377;45.130;6.038;2022-12-24T08:43:17;5.72;;;3.47;;
40967;SDS011;57377;45.130;6.038;2022-12-24T08:45:50;391.73;;;10.43;;
40967;SDS011;57377;45.130;6.038;2022-12-24T08:48:15;128.00;;;11.32;;
40967;SDS011;57377;45.130;6.038;2022-12-24T08:50:41;31.65;;;7.25;;
40967;SDS011;57377;45.130;6.038;2022-12-24T08:53:09;49.05;;;6.68;;
40967;SDS011;57377;45.130;6.038;2022-12-24T08:55:37;493.58;;;15.50;;
40967;SDS011;57377;45.130;6.038;2022-12-24T08:58:03;175.65;;;9.05;;
40967;SDS011;57377;45.130;6.038;2022-12-24T09:00:29;331.35;;;11.43;;
40967;SDS011;57377;45.130;6.038;2022-12-24T09:02:57;102.90;;;8.38;;
40967;SDS011;57377;45.130;6.038;2022-12-24T09:05:27;113.95;;;12.18;;
40967;SDS011;57377;45.130;6.038;2022-12-24T09:08:03;61.75;;;18.10;;
40967;SDS011;57377;45.130;6.038;2022-12-24T09:10:45;540.25;;;19.02;;
40967;SDS011;57377;45.130;6.038;2022-12-24T09:19:30;8.27;;;4.05;;
40967;SDS011;57377;45.130;6.038;2022-12-24T09:21:56;6.55;;;3.50;;
40967;SDS011;57377;45.130;6.038;2022-12-24T09:24:21;11.48;;;5.43;;
40967;SDS011;57377;45.130;6.038;2022-12-24T09:26:47;6.45;;;3.80;;
40967;SDS011;57377;45.130;6.038;2022-12-24T09:29:15;270.13;;;8.35;;
40967;SDS011;57377;45.130;6.038;2022-12-24T09:31:44;371.35;;;10.73;;
40967;SDS011;57377;45.130;6.038;2022-12-24T09:34:12;21.33;;;4.40;;
40967;SDS011;57377;45.130;6.038;2022-12-24T09:36:37;15.70;;;4.85;;
40967;SDS011;57377;45.130;6.038;2022-12-24T09:39:06;26.90;;;5.47;;
40967;SDS011;57377;45.130;6.038;2022-12-24T09:44:19;32.78;;;11.93;;
40967;SDS011;57377;45.130;6.038;2022-12-24T09:46:48;9.60;;;5.60;;
40967;SDS011;57377;45.130;6.038;2022-12-24T09:49:17;6.63;;;3.25;;
40967;SDS011;57377;45.130;6.038;2022-12-24T09:51:48;705.45;;;17.60;;
40967;SDS011;57377;45.130;6.038;2022-12-24T09:54:23;579.63;;;13.95;;
40967;SDS011;57377;45.130;6.038;2022-12-24T09:56:53;690.45;;;15.52;;
40967;SDS011;57377;45.130;6.038;2022-12-24T09:59:30;501.30;;;13.65;;
40967;SDS011;57377;45.130;6.038;2022-12-24T10:02:07;252.95;;;10.23;;
40967;SDS011;57377;45.130;6.038;2022-12-24T10:04:38;130.63;;;9.60;;
40967;SDS011;57377;45.130;6.038;2022-12-24T10:28:52;13.88;;;8.15;;
40967;SDS011;57377;45.130;6.038;2022-12-24T10:31:51;11.93;;;6.75;;
40967;SDS011;57377;45.130;6.038;2022-12-24T10:34:23;8.07;;;4.03;;
40967;SDS011;57377;45.130;6.038;2022-12-24T10:36:51;4.03;;;2.22;;
40967;SDS011;57377;45.130;6.038;2022-12-24T10:39:19;5.63;;;2.47;;
40967;SDS011;57377;45.130;6.038;2022-12-24T10:41:47;5.00;;;1.90;;
40967;SDS011;57377;45.130;6.038;2022-12-24T10:44:20;3.08;;;1.88;;
40967;SDS011;57377;45.130;6.038;2022-12-24T10:46:48;4.85;;;2.40;;
40967;SDS011;57377;45.130;6.038;2022-12-24T10:49:25;5.22;;;1.83;;
40967;SDS011;57377;45.130;6.038;2022-12-24T10:52:11;4.40;;;1.23;;
40967;SDS011;57377;45.130;6.038;2022-12-24T10:57:38;2.63;;;1.63;;
40967;SDS011;57377;45.130;6.038;2022-12-24T11:00:05;4.05;;;1.52;;
40967;SDS011;57377;45.130;6.038;2022-12-24T11:02:37;1.70;;;1.10;;
40967;SDS011;57377;45.130;6.038;2022-12-24T11:05:05;1.65;;;1.27;;
40967;SDS011;57377;45.130;6.038;2022-12-24T11:07:58;6.78;;;2.90;;
40967;SDS011;57377;45.130;6.038;2022-12-24T11:10:26;4.50;;;3.08;;
40967;SDS011;57377;45.130;6.038;2022-12-24T11:12:51;5.82;;;2.78;;
40967;SDS011;57377;45.130;6.038;2022-12-24T11:15:28;3.78;;;2.28;;
40967;SDS011;57377;45.130;6.038;2022-12-24T11:17:59;4.50;;;2.70;;
40967;SDS011;57377;45.130;6.038;2022-12-24T11:20:33;2.92;;;1.95;;
40967;SDS011;57377;45.130;6.038;2022-12-24T11:23:04;2.88;;;1.52;;
40967;SDS011;57377;45.130;6.038;2022-12-24T11:25:31;2.58;;;1.52;;
40967;SDS011;57377;45.130;6.038;2022-12-24T11:28:11;1.58;;;1.30;;
40967;SDS011;57377;45.130;6.038;2022-12-24T11:30:57;1.90;;;0.95;;
40967;SDS011;57377;45.130;6.038;2022-12-24T11:33:47;1.55;;;0.80;;
40967;SDS011;57377;45.130;6.038;2022-12-24T11:36:15;5.25;;;0.77;;
40967;SDS011;57377;45.130;6.038;2022-12-24T11:38:47;2.25;;;0.60;;
40967;SDS011;57377;45.130;6.038;2022-12-24T11:41:20;3.85;;;1.00;;
40967;SDS011;57377;45.130;6.038;2022-12-24T11:43:47;1.15;;;0.70;;
40967;SDS011;57377;45.130;6.038;2022-12-24T11:49:12;0.35;;;0.32;;
40967;SDS011;57377;45.130;6.038;2022-12-24T11:51:45;0.95;;;0.60;;
40967;SDS011;57377;45.130;6.038;2022-12-24T11:54:31;2.63;;;0.52;;
40967;SDS011;57377;45.130;6.038;2022-12-24T11:57:01;0.47;;;0.30;;
40967;SDS011;57377;45.130;6.038;2022-12-24T11:59:37;4.05;;;0.57;;
40967;SDS011;57377;45.130;6.038;2022-12-24T12:02:18;1.35;;;0.70;;
40967;SDS011;57377;45.130;6.038;2022-12-24T12:07:14;1.17;;;0.73;;
40967;SDS011;57377;45.130;6.038;2022-12-24T12:09:50;1.50;;;0.80;;
40967;SDS011;57377;45.130;6.038;2022-12-24T12:12:21;1.67;;;0.70;;
40967;SDS011;57377;45.130;6.038;2022-12-24T12:14:55;0.90;;;0.65;;
40967;SDS011;57377;45.130;6.038;2022-12-24T12:20:20;1.92;;;0.80;;
40967;SDS011;57377;45.130;6.038;2022-12-24T12:28:35;1.60;;;0.60;;
40967;SDS011;57377;45.130;6.038;2022-12-24T12:33:44;2.08;;;0.85;;
40967;SDS011;57377;45.130;6.038;2022-12-24T12:36:19;1.05;;;0.60;;
40967;SDS011;57377;45.130;6.038;2022-12-24T12:38:47;0.80;;;0.55;;
40967;SDS011;57377;45.130;6.038;2022-12-24T12:41:20;0.47;;;0.45;;
40967;SDS011;57377;45.130;6.038;2022-12-24T12:54:50;0.68;;;0.57;;
40967;SDS011;57377;45.130;6.038;2022-12-24T12:57:43;2.17;;;0.80;;
40967;SDS011;57377;45.130;6.038;2022-12-24T13:00:12;0.73;;;0.50;;
40967;SDS011;57377;45.130;6.038;2022-12-24T13:08:37;1.02;;;0.70;;
40967;SDS011;57377;45.130;6.038;2022-12-24T13:14:34;3.58;;;0.55;;
40967;SDS011;57377;45.130;6.038;2022-12-24T13:22:53;1.10;;;0.85;;
40967;SDS011;57377;45.130;6.038;2022-12-24T13:25:28;2.00;;;1.00;;
40967;SDS011;57377;45.130;6.038;2022-12-24T13:30:46;3.03;;;1.42;;
40967;SDS011;57377;45.130;6.038;2022-12-24T13:36:04;2.90;;;1.35;;
40967;SDS011;57377;45.130;6.038;2022-12-24T13:38:33;5.07;;;1.30;;
40967;SDS011;57377;45.130;6.038;2022-12-24T13:49:18;2.35;;;1.08;;
40967;SDS011;57377;45.130;6.038;2022-12-24T13:51:49;1.67;;;0.70;;
40967;SDS011;57377;45.130;6.038;2022-12-24T13:54:16;3.92;;;0.80;;
40967;SDS011;57377;45.130;6.038;2022-12-24T13:56:45;2.35;;;1.52;;
40967;SDS011;57377;45.130;6.038;2022-12-24T13:59:24;5.47;;;0.80;;
40967;SDS011;57377;45.130;6.038;2022-12-24T14:01:53;2.28;;;1.02;;
40967;SDS011;57377;45.130;6.038;2022-12-24T14:04:25;4.25;;;1.33;;
40967;SDS011;57377;45.130;6.038;2022-12-24T14:06:53;2.20;;;1.50;;
40967;SDS011;57377;45.130;6.038;2022-12-24T14:09:25;2.10;;;1.20;;
40967;SDS011;57377;45.130;6.038;2022-12-24T14:14:28;2.85;;;1.45;;
40967;SDS011;57377;45.130;6.038;2022-12-24T14:16:59;3.50;;;1.30;;
40967;SDS011;57377;45.130;6.038;2022-12-24T14:19:42;3.92;;;1.63;;
40967;SDS011;57377;45.130;6.038;2022-12-24T14:24:37;1.42;;;0.98;;
40967;SDS011;57377;45.130;6.038;2022-12-24T14:27:16;2.75;;;0.93;;
40967;SDS011;57377;45.130;6.038;2022-12-24T14:29:47;1.70;;;0.95;;
40967;SDS011;57377;45.130;6.038;2022-12-24T14:32:16;1.65;;;0.90;;
40967;SDS011;57377;45.130;6.038;2022-12-24T14:34:41;2.17;;;1.23;;
40967;SDS011;57377;45.130;6.038;2022-12-24T14:37:07;3.30;;;0.95;;
40967;SDS011;57377;45.130;6.038;2022-12-24T14:39:37;4.93;;;1.77;;
40967;SDS011;57377;45.130;6.038;2022-12-24T14:44:55;2.40;;;1.40;;
40967;SDS011;57377;45.130;6.038;2022-12-24T14:47:35;3.17;;;1.58;;
40967;SDS011;57377;45.130;6.038;2022-12-24T14:55:37;4.45;;;1.02;;
40967;SDS011;57377;45.130;6.038;2022-12-24T14:58:24;4.60;;;1.73;;
40967;SDS011;57377;45.130;6.038;2022-12-24T15:00:54;6.82;;;2.33;;
40967;SDS011;57377;45.130;6.038;2022-12-24T15:03:25;12.63;;;4.40;;
40967;SDS011;57377;45.130;6.038;2022-12-24T15:05:56;17.58;;;8.30;;
40967;SDS011;57377;45.130;6.038;2022-12-24T15:08:42;14.70;;;5.68;;
40967;SDS011;57377;45.130;6.038;2022-12-24T15:11:13;14.50;;;5.57;;
40967;SDS011;57377;45.130;6.038;2022-12-24T15:13:43;14.73;;;4.97;;
40967;SDS011;57377;45.130;6.038;2022-12-24T15:16:12;9.70;;;4.53;;
40967;SDS011;57377;45.130;6.038;2022-12-24T15:18:51;15.98;;;7.10;;
40967;SDS011;57377;45.130;6.038;2022-12-24T15:21:25;19.33;;;8.40;;
40967;SDS011;57377;45.130;6.038;2022-12-24T15:23:54;8.07;;;3.83;;
40967;SDS011;57377;45.130;6.038;2022-12-24T15:26:30;4.38;;;2.38;;
40967;SDS011;57377;45.130;6.038;2022-12-24T15:29:05;3.28;;;1.52;;
40967;SDS011;57377;45.130;6.038;2022-12-24T15:31:41;4.75;;;1.88;;
40967;SDS011;57377;45.130;6.038;2022-12-24T15:34:23;5.90;;;1.50;;
40967;SDS011;57377;45.130;6.038;2022-12-24T15:36:49;3.25;;;1.25;;
40967;SDS011;57377;45.130;6.038;2022-12-24T15:39:16;3.97;;;1.85;;
40967;SDS011;57377;45.130;6.038;2022-12-24T15:41:42;25.38;;;11.00;;
40967;SDS011;57377;45.130;6.038;2022-12-24T15:44:37;31.52;;;11.40;;
40967;SDS011;57377;45.130;6.038;2022-12-24T15:47:05;14.98;;;6.70;;
40967;SDS011;57377;45.130;6.038;2022-12-24T15:49:33;6.95;;;2.30;;
40967;SDS011;57377;45.130;6.038;2022-12-24T15:52:03;8.30;;;2.10;;
40967;SDS011;57377;45.130;6.038;2022-12-24T15:54:41;3.83;;;1.98;;
40967;SDS011;57377;45.130;6.038;2022-12-24T15:57:20;5.00;;;2.30;;
40967;SDS011;57377;45.130;6.038;2022-12-24T15:59:51;4.13;;;1.55;;
40967;SDS011;57377;45.130;6.038;2022-12-24T16:10:38;5.63;;;0.93;;
40967;SDS011;57377;45.130;6.038;2022-12-24T16:13:23;6.05;;;2.17;;
40967;SDS011;57377;45.130;6.038;2022-12-24T16:15:57;2.13;;;1.17;;
40967;SDS011;57377;45.130;6.038;2022-12-24T16:19:14;7.32;;;1.50;;
40967;SDS011;57377;45.130;6.038;2022-12-24T16:21:22;3.45;;;1.33;;
40967;SDS011;57377;45.130;6.038;2022-12-24T16:23:51;2.85;;;1.10;;
40967;SDS011;57377;45.130;6.038;2022-12-24T16:26:19;3.30;;;2.10;;
40967;SDS011;57377;45.130;6.038;2022-12-24T16:28:45;4.70;;;2.08;;
40967;SDS011;57377;45.130;6.038;2022-12-24T16:31:15;6.25;;;1.08;;
40967;SDS011;57377;45.130;6.038;2022-12-24T16:33:42;6.13;;;1.67;;
40967;SDS011;57377;45.130;6.038;2022-12-24T16:36:08;3.08;;;1.42;;
40967;SDS011;57377;45.130;6.038;2022-12-24T16:38:34;3.03;;;1.70;;
40967;SDS011;57377;45.130;6.038;2022-12-24T16:41:20;4.22;;;1.73;;
40967;SDS011;57377;45.130;6.038;2022-12-24T16:43:45;2.45;;;1.23;;
40967;SDS011;57377;45.130;6.038;2022-12-24T16:46:14;9.40;;;3.17;;
40967;SDS011;57377;45.130;6.038;2022-12-24T16:48:39;4.55;;;2.60;;
40967;SDS011;57377;45.130;6.038;2022-12-24T16:51:10;4.43;;;1.40;;
40967;SDS011;57377;45.130;6.038;2022-12-24T16:53:35;2.83;;;1.35;;
40967;SDS011;57377;45.130;6.038;2022-12-24T16:56:01;4.82;;;1.42;;
40967;SDS011;57377;45.130;6.038;2022-12-24T16:58:26;2.35;;;1.40;;
40967;SDS011;57377;45.130;6.038;2022-12-24T17:00:53;5.07;;;1.40;;
40967;SDS011;57377;45.130;6.038;2022-12-24T17:03:19;6.50;;;1.98;;
40967;SDS011;57377;45.130;6.038;2022-12-24T17:05:44;2.55;;;1.27;;
40967;SDS011;57377;45.130;6.038;2022-12-24T17:08:10;5.38;;;1.20;;
40967;SDS011;57377;45.130;6.038;2022-12-24T17:10:36;8.68;;;2.05;;
40967;SDS011;57377;45.130;6.038;2022-12-24T17:13:02;7.38;;;1.40;;
40967;SDS011;57377;45.130;6.038;2022-12-24T17:15:28;6.93;;;1.70;;
40967;SDS011;57377;45.130;6.038;2022-12-24T17:17:54;2.45;;;1.40;;